ADDS METAR Data INFO
IDs: Format: Raw Decoded Include TAF

Data at: 2256 UTC 22 Jun 2018

KDRT 222253Z AUTO 15009G18KT 10SM FEW075 37/19 A2975 RMK AO2 SLP056 T03720189